Time;durP1;ratioP1;P1;durP2;ratioP2;P2;SDS_P1;SDS_P2;PMS_P1;PMS_P2;Temp;Humidity;BMP_temperature;BMP_pressure;BME280_temperature;BME280_humidity;BME280_pressure;Samples;Min_cycle;Max_cycle;Signal;HPM_P1;HPM_P2
2024/03/13 00:09:45;;;;;;;36.10;27.00;;;;;;;4.84;100.00;99254.43;447231;1236;139616;-60
2024/03/13 00:19:48;;;;;;;41.90;24.40;;;;;;;4.84;100.00;99258.56;447145;1240;139533;-60
2024/03/13 00:29:52;;;;;;;35.40;25.80;;;;;;;4.82;100.00;99257.96;447048;1236;140122;-60
2024/03/13 00:39:58;;;;;;;43.40;27.50;;;;;;;4.79;100.00;99254.12;447121;1240;139435;-60
2024/03/13 00:50:03;;;;;;;39.50;29.10;;;;;;;4.77;100.00;99249.67;447197;1240;140423;-61
2024/03/13 01:00:10;;;;;;;38.40;26.00;;;;;;;4.77;100.00;99251.58;447449;1241;140228;-58
2024/03/13 01:10:13;;;;;;;39.60;28.40;;;;;;;4.76;100.00;99251.80;447529;1240;140123;-60
2024/03/13 01:20:18;;;;;;;45.90;28.30;;;;;;;4.78;100.00;99252.27;447957;1239;139422;-59
2024/03/13 01:30:23;;;;;;;43.00;27.90;;;;;;;4.78;100.00;99252.42;447209;1236;139673;-59
2024/03/13 01:54:50;;;;;;;41.90;29.20;;;;;;;4.75;100.00;99254.80;447409;1238;140121;-60
2024/03/13 02:11:35;;;;;;;41.60;27.30;;;;;;;4.63;100.00;99246.49;446723;1235;139705;-59
2024/03/13 02:21:39;;;;;;;38.90;25.90;;;;;;;4.63;100.00;99249.64;447264;1236;139549;-59
2024/03/13 02:31:42;;;;;;;37.20;24.60;;;;;;;4.59;100.00;99258.83;447061;1240;139843;-59
2024/03/13 02:41:45;;;;;;;32.80;25.20;;;;;;;4.56;100.00;99260.68;447208;1241;139606;-60
2024/03/13 02:51:48;;;;;;;33.10;24.20;;;;;;;4.54;100.00;99263.20;447275;1236;139936;-59
2024/03/13 03:01:52;;;;;;;32.00;23.40;;;;;;;4.54;100.00;99267.38;447379;1239;139512;-60
2024/03/13 03:11:55;;;;;;;31.40;22.80;;;;;;;4.52;100.00;99273.35;448245;1239;140213;-60
2024/03/13 03:21:59;;;;;;;32.20;24.40;;;;;;;4.49;100.00;99277.77;447509;1239;139525;-76
2024/03/13 03:32:02;;;;;;;29.00;22.90;;;;;;;4.47;100.00;99274.95;447523;1240;138976;-59
2024/03/13 03:42:06;;;;;;;34.60;25.70;;;;;;;4.44;100.00;99282.17;447023;1240;138965;-59
2024/03/13 03:52:10;;;;;;;33.60;24.50;;;;;;;4.42;100.00;99288.34;447280;1240;139027;-59
2024/03/13 04:02:16;;;;;;;32.50;23.20;;;;;;;4.42;100.00;99290.23;447194;1238;139133;-60
2024/03/13 04:12:19;;;;;;;36.60;25.10;;;;;;;4.42;100.00;99292.51;447366;1238;140901;-61
2024/03/13 04:22:22;;;;;;;33.20;24.30;;;;;;;4.44;100.00;99294.51;447147;1240;139314;-59
2024/03/13 04:32:25;;;;;;;34.20;24.60;;;;;;;4.44;100.00;99302.27;447029;1240;139972;-59
2024/03/13 04:42:29;;;;;;;29.70;22.30;;;;;;;4.45;100.00;99312.83;447115;1236;139398;-59
2024/03/13 04:52:32;;;;;;;32.00;23.60;;;;;;;4.45;100.00;99319.39;447298;1236;139388;-59
2024/03/13 05:02:35;;;;;;;31.40;22.90;;;;;;;4.44;100.00;99325.70;447205;1241;139646;-59
2024/03/13 05:12:43;;;;;;;31.30;22.70;;;;;;;4.42;100.00;99327.88;447647;1241;139754;-77
2024/03/13 05:22:46;;;;;;;27.20;21.10;;;;;;;4.41;100.00;99332.44;447594;1236;139528;-76
2024/03/13 05:32:49;;;;;;;27.40;21.10;;;;;;;4.40;100.00;99335.39;448816;1239;139096;-58
2024/03/13 05:42:53;;;;;;;28.80;20.90;;;;;;;4.40;100.00;99343.75;448039;1240;139107;-60
2024/03/13 05:52:56;;;;;;;32.10;23.70;;;;;;;4.41;100.00;99344.70;447546;1241;141849;-58
2024/03/13 06:02:59;;;;;;;38.70;26.30;;;;;;;4.47;100.00;99353.11;447828;1240;139005;-58
2024/03/13 06:13:02;;;;;;;37.20;24.70;;;;;;;4.56;100.00;99366.27;447827;1240;139420;-59
2024/03/13 06:23:06;;;;;;;35.50;22.70;;;;;;;4.66;100.00;99375.02;449082;1240;139854;-60
2024/03/13 06:33:11;;;;;;;36.30;23.90;;;;;;;4.76;100.00;99379.30;447415;1240;139087;-60
2024/03/13 06:43:14;;;;;;;43.00;26.50;;;;;;;4.88;100.00;99385.51;444069;1239;5081014;-61
2024/03/13 06:53:17;;;;;;;35.60;24.60;;;;;;;5.09;100.00;99389.67;447500;1238;139757;-59
2024/03/13 07:03:23;;;;;;;39.60;26.40;;;;;;;5.28;100.00;99395.94;447316;1240;139060;-60
2024/03/13 07:13:26;;;;;;;43.30;25.20;;;;;;;5.41;100.00;99404.88;447155;1240;139554;-59
2024/03/13 07:23:30;;;;;;;40.30;24.20;;;;;;;5.52;100.00;99410.65;447402;1236;139630;-61
2024/03/13 07:33:33;;;;;;;39.80;29.50;;;;;;;5.64;100.00;99418.79;447067;1240;138962;-60
2024/03/13 07:43:36;;;;;;;31.00;22.60;;;;;;;5.74;100.00;99420.38;447520;1240;139665;-79
2024/03/13 07:53:40;;;;;;;21.90;17.20;;;;;;;6.01;100.00;99423.65;447147;1240;140006;-76
2024/03/13 08:03:43;;;;;;;21.50;17.10;;;;;;;6.16;100.00;99434.77;447318;1240;139069;-59
2024/03/13 08:13:46;;;;;;;25.00;20.00;;;;;;;6.35;100.00;99440.85;447071;1240;139438;-59
2024/03/13 08:24:09;;;;;;;22.80;19.20;;;;;;;6.90;100.00;99450.30;447101;1241;139143;-59
2024/03/13 08:34:32;;;;;;;17.50;14.20;;;;;;;7.51;100.00;99455.54;447227;1240;139049;-59
2024/03/13 08:44:54;;;;;;;21.80;17.60;;;;;;;8.02;100.00;99459.21;447603;1242;139637;-60
2024/03/13 08:55:17;;;;;;;19.70;17.60;;;;;;;8.26;100.00;99459.50;447572;1240;139046;-59
2024/03/13 09:05:38;;;;;;;20.80;17.10;;;;;;;8.63;100.00;99466.46;447205;1239;139237;-60
2024/03/13 09:16:04;;;;;;;20.40;16.50;;;;;;;8.77;100.00;99472.48;447494;1238;139302;-79
2024/03/13 09:26:07;;;;;;;21.70;16.60;;;;;;;8.93;100.00;99476.96;447635;1241;139127;-76
2024/03/13 09:36:14;;;;;;;18.00;15.00;;;;;;;8.97;100.00;99480.20;447324;1240;139381;-60
2024/03/13 09:46:19;;;;;;;18.00;16.20;;;;;;;9.49;100.00;99483.02;447360;1240;139111;-59
2024/03/13 09:56:22;;;;;;;17.90;16.00;;;;;;;10.11;100.00;99484.62;448108;1240;139572;-74
2024/03/13 10:06:26;;;;;;;22.30;18.10;;;;;;;10.75;100.00;99486.84;446952;1240;140112;-73
2024/03/13 10:16:33;;;;;;;18.50;16.50;;;;;;;10.76;100.00;99495.73;447242;1240;139361;-60
2024/03/13 10:26:39;;;;;;;23.90;20.00;;;;;;;10.73;100.00;99502.39;446857;1240;139822;-61
2024/03/13 10:36:43;;;;;;;21.10;17.50;;;;;;;10.54;100.00;99507.13;447351;1241;139862;-60
2024/03/13 10:46:46;;;;;;;19.90;15.50;;;;;;;10.68;100.00;99512.53;447215;1239;139450;-62
2024/03/13 10:56:51;;;;;;;21.10;18.70;;;;;;;10.77;100.00;99515.14;447732;1236;139573;-73
2024/03/13 11:06:54;;;;;;;21.90;16.90;;;;;;;10.56;100.00;99517.67;448767;1238;139850;-74
2024/03/13 11:16:59;;;;;;;21.40;17.80;;;;;;;10.33;100.00;99516.15;446856;1240;140387;-60
2024/03/13 11:27:10;;;;;;;17.90;15.10;;;;;;;10.38;100.00;99514.10;447157;1239;139428;-58
2024/03/13 11:37:15;;;;;;;19.40;16.70;;;;;;;10.49;100.00;99510.95;447067;1239;139704;-60
2024/03/13 11:47:24;;;;;;;20.10;16.40;;;;;;;10.43;100.00;99505.23;447005;1240;139691;-60
2024/03/13 11:57:27;;;;;;;19.70;16.80;;;;;;;10.41;100.00;99503.07;446934;1240;139370;-59
2024/03/13 12:07:36;;;;;;;17.40;15.40;;;;;;;10.61;100.00;99499.51;446925;1239;139396;-59
2024/03/13 12:17:39;;;;;;;19.00;14.80;;;;;;;11.04;100.00;99493.17;446844;1240;139402;-60
2024/03/13 12:27:46;;;;;;;16.80;14.80;;;;;;;11.24;100.00;99483.11;446956;1240;139902;-60
2024/03/13 12:37:50;;;;;;;17.60;15.80;;;;;;;11.15;100.00;99482.28;446769;1240;139310;-59
2024/03/13 12:47:53;;;;;;;19.70;16.90;;;;;;;11.04;100.00;99477.40;446932;1240;139566;-59
2024/03/13 12:58:05;;;;;;;19.20;14.90;;;;;;;10.80;100.00;99473.39;446869;1240;139691;-60
2024/03/13 13:08:10;;;;;;;17.50;14.90;;;;;;;10.75;99.99;99478.15;447026;1239;139929;-75
2024/03/13 13:18:13;;;;;;;17.70;13.80;;;;;;;11.02;99.89;99476.86;446794;1241;140091;-75
2024/03/13 13:28:18;;;;;;;20.90;16.30;;;;;;;11.25;99.53;99485.08;450168;1236;139348;-74
2024/03/13 13:38:23;;;;;;;21.20;15.70;;;;;;;11.17;97.77;99485.66;457365;1236;139243;-74
2024/03/13 13:48:27;;;;;;;20.50;15.00;;;;;;;10.93;96.73;99482.70;450368;1239;139487;-76
2024/03/13 13:58:31;;;;;;;20.10;14.50;;;;;;;10.81;96.15;99493.98;448363;1240;139345;-75
2024/03/13 14:08:35;;;;;;;17.30;13.70;;;;;;;10.66;95.60;99493.91;447081;1240;139296;-73
2024/03/13 14:18:38;;;;;;;17.50;14.20;;;;;;;10.62;95.48;99493.34;446784;1240;139882;-73
2024/03/13 14:28:46;;;;;;;20.70;13.20;;;;;;;10.59;95.10;99492.32;447107;1238;139319;-74
2024/03/13 14:38:51;;;;;;;21.90;14.10;;;;;;;10.56;94.51;99491.60;447037;1240;139332;-74
2024/03/13 14:48:54;;;;;;;16.10;11.40;;;;;;;10.69;94.05;99489.34;446719;1236;139459;-61
2024/03/13 14:58:58;;;;;;;18.80;13.10;;;;;;;10.70;92.97;99492.28;446891;1240;140901;-60
2024/03/13 15:09:01;;;;;;;19.00;12.90;;;;;;;10.54;92.31;99494.73;447823;1240;140353;-62
2024/03/13 15:19:04;;;;;;;18.00;14.10;;;;;;;10.25;91.83;99495.45;446790;1236;139771;-59
2024/03/13 15:29:07;;;;;;;18.30;15.00;;;;;;;9.99;91.86;99499.24;446562;1237;139656;-63
2024/03/13 15:39:13;;;;;;;19.40;14.50;;;;;;;9.77;92.17;99504.08;447029;1238;139466;-62
2024/03/13 15:49:16;;;;;;;17.00;13.50;;;;;;;9.56;92.65;99507.47;446943;1240;139410;-60
2024/03/13 15:59:19;;;;;;;21.30;14.40;;;;;;;9.32;93.09;99508.56;446994;1240;139242;-60
2024/03/13 16:09:23;;;;;;;21.20;15.90;;;;;;;9.03;93.52;99514.12;447025;1240;139067;-60
2024/03/13 16:19:26;;;;;;;23.90;17.70;;;;;;;8.72;94.33;99517.27;446935;1239;139413;-74
2024/03/13 16:29:29;;;;;;;20.70;16.60;;;;;;;8.43;94.93;99532.11;447245;1240;139224;-74
2024/03/13 16:39:32;;;;;;;23.80;16.90;;;;;;;8.17;95.74;99538.39;447222;1236;139085;-60
2024/03/13 16:49:35;;;;;;;24.60;18.30;;;;;;;7.98;96.77;99539.10;446950;1238;138995;-59
2024/03/13 16:59:38;;;;;;;29.80;20.20;;;;;;;7.83;97.32;99546.52;446802;1238;138881;-73
2024/03/13 17:09:42;;;;;;;28.60;21.10;;;;;;;7.72;98.19;99552.34;447001;1236;140105;-74
2024/03/13 17:19:45;;;;;;;27.60;18.20;;;;;;;7.61;99.05;99554.80;446963;1240;139871;-60
2024/03/13 17:29:48;;;;;;;23.20;18.50;;;;;;;7.53;99.72;99560.61;446675;1240;140017;-60
2024/03/13 17:39:52;;;;;;;26.40;19.80;;;;;;;7.47;99.92;99564.59;446979;1240;138986;-59
2024/03/13 17:49:55;;;;;;;33.80;20.20;;;;;;;7.41;100.00;99571.70;446939;1237;139208;-58
2024/03/13 17:59:59;;;;;;;26.20;19.60;;;;;;;7.34;100.00;99571.33;446745;1238;139386;-59
2024/03/13 18:10:03;;;;;;;33.90;21.00;;;;;;;7.30;100.00;99576.44;447036;1236;138990;-59
2024/03/13 18:20:09;;;;;;;33.00;20.90;;;;;;;7.26;100.00;99579.92;447464;1238;139888;-74
2024/03/13 18:30:15;;;;;;;35.10;24.20;;;;;;;7.20;100.00;99585.61;447641;1239;140433;-59
2024/03/13 18:40:19;;;;;;;30.70;24.70;;;;;;;7.07;100.00;99585.39;443288;1239;5083306;-59
2024/03/13 18:50:22;;;;;;;39.00;28.70;;;;;;;6.98;100.00;99587.05;447455;1239;139431;-59
2024/03/13 19:00:28;;;;;;;33.40;25.70;;;;;;;6.86;100.00;99589.20;447055;1239;139416;-59
2024/03/13 19:10:32;;;;;;;30.00;23.80;;;;;;;6.72;100.00;99594.02;447327;1235;139604;-59
2024/03/13 19:20:36;;;;;;;33.40;25.20;;;;;;;6.61;100.00;99598.90;448399;1236;139032;-60
2024/03/13 19:30:39;;;;;;;33.10;24.60;;;;;;;6.51;100.00;99597.27;447645;1236;139128;-59
2024/03/13 19:40:43;;;;;;;31.30;25.90;;;;;;;6.40;100.00;99601.42;447081;1241;139603;-59
2024/03/13 19:50:47;;;;;;;37.40;27.00;;;;;;;6.28;100.00;99610.84;447431;1236;139059;-60
2024/03/13 20:00:50;;;;;;;31.60;26.80;;;;;;;6.19;100.00;99612.11;447128;1239;140330;-60
2024/03/13 20:10:59;;;;;;;36.80;26.90;;;;;;;6.10;100.00;99608.89;447521;1240;139705;-60
2024/03/13 20:21:04;;;;;;;33.40;25.70;;;;;;;6.01;100.00;99614.81;447273;1240;139108;-60
2024/03/13 20:31:07;;;;;;;38.00;27.90;;;;;;;5.93;100.00;99616.56;446855;1241;139099;-59
2024/03/13 20:41:11;;;;;;;37.30;27.40;;;;;;;5.86;100.00;99613.74;447275;1236;139074;-59
2024/03/13 20:51:14;;;;;;;35.60;25.60;;;;;;;5.79;100.00;99611.59;447697;1239;139038;-60
2024/03/13 21:01:19;;;;;;;33.00;27.20;;;;;;;5.72;100.00;99606.52;447176;1236;140793;-60
2024/03/13 21:11:23;;;;;;;36.00;25.70;;;;;;;5.64;100.00;99605.84;447488;1236;139716;-72
2024/03/13 21:21:26;;;;;;;38.60;27.50;;;;;;;5.54;100.00;99608.48;447608;1241;139461;-75
2024/03/13 21:31:30;;;;;;;50.80;35.80;;;;;;;5.39;100.00;99602.52;447409;1240;139066;-60
2024/03/13 21:41:33;;;;;;;41.80;32.50;;;;;;;5.19;100.00;99604.38;447572;1240;139596;-59
2024/03/13 21:51:36;;;;;;;45.90;32.80;;;;;;;5.11;100.00;99607.36;447973;1240;139032;-64
2024/03/13 22:01:39;;;;;;;50.50;34.80;;;;;;;5.01;100.00;99606.53;447341;1240;139087;-64
2024/03/13 22:11:43;;;;;;;54.80;37.30;;;;;;;4.80;100.00;99607.70;447580;1236;139130;-60
2024/03/13 22:21:46;;;;;;;46.50;36.60;;;;;;;4.64;100.00;99609.73;447457;1240;139017;-59
2024/03/13 22:31:49;;;;;;;49.30;35.70;;;;;;;4.54;100.00;99607.50;448612;1236;140195;-59
2024/03/13 22:41:52;;;;;;;45.20;34.60;;;;;;;4.49;100.00;99606.46;448236;1236;139244;-59
2024/03/13 22:51:56;;;;;;;47.40;33.80;;;;;;;4.35;100.00;99608.41;447885;1240;139403;-60
2024/03/13 23:02:00;;;;;;;46.30;33.00;;;;;;;4.18;100.00;99609.52;447475;1240;139189;-74
2024/03/13 23:12:04;;;;;;;45.80;32.20;;;;;;;4.12;100.00;99613.74;447844;1240;139496;-75
2024/03/13 23:22:07;;;;;;;51.70;36.90;;;;;;;4.10;100.00;99607.06;448012;1240;139031;-59
2024/03/13 23:32:11;;;;;;;51.80;37.10;;;;;;;4.04;100.00;99598.64;447189;1241;139721;-60
2024/03/13 23:42:15;;;;;;;62.10;44.80;;;;;;;3.98;100.00;99598.67;447376;1240;139601;-59
2024/03/13 23:52:18;;;;;;;55.20;41.40;;;;;;;3.96;100.00;99600.48;447544;1241;139929;-61
